sensor_id;sensor_type;location;lat;lon;timestamp;temperature;humidity
21035;DHT22;10676;50.848;3.272;2023-01-10T00:00:39;5.70;99.90
21035;DHT22;10676;50.848;3.272;2023-01-10T00:03:09;5.70;99.90
21035;DHT22;10676;50.848;3.272;2023-01-10T00:05:36;5.60;99.90
21035;DHT22;10676;50.848;3.272;2023-01-10T00:08:02;5.60;99.90
21035;DHT22;10676;50.848;3.272;2023-01-10T00:10:28;5.50;99.90
21035;DHT22;10676;50.848;3.272;2023-01-10T00:12:54;5.50;99.90
21035;DHT22;10676;50.848;3.272;2023-01-10T00:15:39;5.50;99.90
21035;DHT22;10676;50.848;3.272;2023-01-10T00:18:05;5.50;99.90
21035;DHT22;10676;50.848;3.272;2023-01-10T00:20:30;5.40;99.90
21035;DHT22;10676;50.848;3.272;2023-01-10T00:22:56;5.30;99.90
21035;DHT22;10676;50.848;3.272;2023-01-10T00:25:22;5.30;99.90
21035;DHT22;10676;50.848;3.272;2023-01-10T00:27:51;5.30;99.90
21035;DHT22;10676;50.848;3.272;2023-01-10T00:30:29;5.20;99.90
21035;DHT22;10676;50.848;3.272;2023-01-10T00:32:55;5.20;99.90
21035;DHT22;10676;50.848;3.272;2023-01-10T00:35:21;5.10;99.90
21035;DHT22;10676;50.848;3.272;2023-01-10T00:37:47;5.10;99.90
21035;DHT22;10676;50.848;3.272;2023-01-10T00:40:12;5.10;99.90
21035;DHT22;10676;50.848;3.272;2023-01-10T00:42:38;5.10;99.90
21035;DHT22;10676;50.848;3.272;2023-01-10T00:45:23;5.10;99.90
21035;DHT22;10676;50.848;3.272;2023-01-10T00:47:50;5.00;99.90
21035;DHT22;10676;50.848;3.272;2023-01-10T00:50:16;5.00;99.90
21035;DHT22;10676;50.848;3.272;2023-01-10T00:52:42;5.00;99.90
21035;DHT22;10676;50.848;3.272;2023-01-10T00:55:08;5.00;99.90
21035;DHT22;10676;50.848;3.272;2023-01-10T00:57:34;4.90;99.90
21035;DHT22;10676;50.848;3.272;2023-01-10T00:59:59;4.90;99.90
21035;DHT22;10676;50.848;3.272;2023-01-10T01:02:25;4.80;99.90
21035;DHT22;10676;50.848;3.272;2023-01-10T01:04:51;4.80;99.90
21035;DHT22;10676;50.848;3.272;2023-01-10T01:07:16;4.70;99.90
21035;DHT22;10676;50.848;3.272;2023-01-10T01:09:42;4.70;99.90
21035;DHT22;10676;50.848;3.272;2023-01-10T01:12:26;4.70;99.90
21035;DHT22;10676;50.848;3.272;2023-01-10T01:14:52;4.60;99.90
21035;DHT22;10676;50.848;3.272;2023-01-10T01:17:18;4.70;99.90
21035;DHT22;10676;50.848;3.272;2023-01-10T01:19:43;4.60;99.90
21035;DHT22;10676;50.848;3.272;2023-01-10T01:22:09;4.60;99.90
21035;DHT22;10676;50.848;3.272;2023-01-10T01:24:35;4.60;99.90
21035;DHT22;10676;50.848;3.272;2023-01-10T01:27:01;4.60;99.90
21035;DHT22;10676;50.848;3.272;2023-01-10T01:29:26;4.60;99.90
21035;DHT22;10676;50.848;3.272;2023-01-10T01:31:52;4.60;99.90
21035;DHT22;10676;50.848;3.272;2023-01-10T01:34:17;4.80;99.90
21035;DHT22;10676;50.848;3.272;2023-01-10T01:36:43;4.70;99.90
21035;DHT22;10676;50.848;3.272;2023-01-10T01:39:09;4.70;99.90
21035;DHT22;10676;50.848;3.272;2023-01-10T01:41:34;4.60;99.90
21035;DHT22;10676;50.848;3.272;2023-01-10T01:44:19;4.60;99.90
21035;DHT22;10676;50.848;3.272;2023-01-10T01:46:51;4.60;99.90
21035;DHT22;10676;50.848;3.272;2023-01-10T01:49:21;4.60;99.90
21035;DHT22;10676;50.848;3.272;2023-01-10T01:51:50;4.50;99.90
21035;DHT22;10676;50.848;3.272;2023-01-10T01:54:18;4.50;99.90
21035;DHT22;10676;50.848;3.272;2023-01-10T01:56:48;4.50;99.90
21035;DHT22;10676;50.848;3.272;2023-01-10T02:01:44;4.40;99.90
21035;DHT22;10676;50.848;3.272;2023-01-10T02:04:21;4.40;99.90
21035;DHT22;10676;50.848;3.272;2023-01-10T02:06:48;4.50;99.90
21035;DHT22;10676;50.848;3.272;2023-01-10T02:09:28;4.50;99.90
21035;DHT22;10676;50.848;3.272;2023-01-10T02:11:56;4.50;99.90
21035;DHT22;10676;50.848;3.272;2023-01-10T02:14:24;4.50;99.90
21035;DHT22;10676;50.848;3.272;2023-01-10T02:16:50;4.50;99.90
21035;DHT22;10676;50.848;3.272;2023-01-10T02:19:53;4.40;99.90
21035;DHT22;10676;50.848;3.272;2023-01-10T02:42:12;3.60;99.90
21035;DHT22;10676;50.848;3.272;2023-01-10T02:44:48;3.50;99.90
21035;DHT22;10676;50.848;3.272;2023-01-10T02:47:15;3.50;99.90
21035;DHT22;10676;50.848;3.272;2023-01-10T02:49:48;3.50;99.90
21035;DHT22;10676;50.848;3.272;2023-01-10T02:52:19;3.50;99.90
21035;DHT22;10676;50.848;3.272;2023-01-10T02:54:47;3.60;99.90
21035;DHT22;10676;50.848;3.272;2023-01-10T02:57:41;3.70;99.90
21035;DHT22;10676;50.848;3.272;2023-01-10T03:03:17;3.80;99.90
21035;DHT22;10676;50.848;3.272;2023-01-10T03:10:59;3.90;99.90
21035;DHT22;10676;50.848;3.272;2023-01-10T03:13:41;4.00;99.90
21035;DHT22;10676;50.848;3.272;2023-01-10T03:16:12;4.00;99.90
21035;DHT22;10676;50.848;3.272;2023-01-10T03:18:46;4.00;99.90
21035;DHT22;10676;50.848;3.272;2023-01-10T03:21:13;4.00;99.90
21035;DHT22;10676;50.848;3.272;2023-01-10T03:23:39;4.00;99.90
21035;DHT22;10676;50.848;3.272;2023-01-10T03:26:05;4.00;99.90
21035;DHT22;10676;50.848;3.272;2023-01-10T03:28:49;4.00;99.90
21035;DHT22;10676;50.848;3.272;2023-01-10T03:31:32;4.00;99.90
21035;DHT22;10676;50.848;3.272;2023-01-10T03:33:58;3.90;99.90
21035;DHT22;10676;50.848;3.272;2023-01-10T03:36:36;3.90;99.90
21035;DHT22;10676;50.848;3.272;2023-01-10T03:41:46;3.80;99.90
21035;DHT22;10676;50.848;3.272;2023-01-10T03:50:03;3.40;99.90
21035;DHT22;10676;50.848;3.272;2023-01-10T03:52:32;3.30;99.90
21035;DHT22;10676;50.848;3.272;2023-01-10T03:54:58;3.20;99.90
21035;DHT22;10676;50.848;3.272;2023-01-10T03:57:25;3.10;99.90
21035;DHT22;10676;50.848;3.272;2023-01-10T03:59:53;3.00;99.90
21035;DHT22;10676;50.848;3.272;2023-01-10T04:02:19;3.00;99.90
21035;DHT22;10676;50.848;3.272;2023-01-10T04:04:45;2.90;99.90
21035;DHT22;10676;50.848;3.272;2023-01-10T04:07:11;2.90;99.90
21035;DHT22;10676;50.848;3.272;2023-01-10T04:09:37;2.80;99.90
21035;DHT22;10676;50.848;3.272;2023-01-10T04:12:02;2.80;99.90
21035;DHT22;10676;50.848;3.272;2023-01-10T04:14:28;2.80;99.90
21035;DHT22;10676;50.848;3.272;2023-01-10T04:16:54;2.80;99.90
21035;DHT22;10676;50.848;3.272;2023-01-10T04:19:20;2.90;99.90
21035;DHT22;10676;50.848;3.272;2023-01-10T04:21:45;2.90;99.90
21035;DHT22;10676;50.848;3.272;2023-01-10T04:24:11;2.90;99.90
21035;DHT22;10676;50.848;3.272;2023-01-10T04:26:37;2.90;99.90
21035;DHT22;10676;50.848;3.272;2023-01-10T04:29:03;2.90;99.90
21035;DHT22;10676;50.848;3.272;2023-01-10T04:31:30;2.80;99.90
21035;DHT22;10676;50.848;3.272;2023-01-10T04:33:56;2.80;99.90
21035;DHT22;10676;50.848;3.272;2023-01-10T04:36:22;2.90;99.90
21035;DHT22;10676;50.848;3.272;2023-01-10T04:38:47;2.90;99.90
21035;DHT22;10676;50.848;3.272;2023-01-10T04:41:13;2.90;99.90
21035;DHT22;10676;50.848;3.272;2023-01-10T04:43:38;3.10;99.90
21035;DHT22;10676;50.848;3.272;2023-01-10T04:46:04;3.10;99.90
21035;DHT22;10676;50.848;3.272;2023-01-10T04:48:30;3.20;99.90
21035;DHT22;10676;50.848;3.272;2023-01-10T04:50:55;3.30;99.90
21035;DHT22;10676;50.848;3.272;2023-01-10T04:53:21;3.40;99.90
21035;DHT22;10676;50.848;3.272;2023-01-10T04:55:47;3.40;99.90
21035;DHT22;10676;50.848;3.272;2023-01-10T04:58:13;3.40;99.90
21035;DHT22;10676;50.848;3.272;2023-01-10T05:00:39;3.50;99.90
21035;DHT22;10676;50.848;3.272;2023-01-10T05:03:05;3.50;99.90
21035;DHT22;10676;50.848;3.272;2023-01-10T05:05:31;3.50;99.90
21035;DHT22;10676;50.848;3.272;2023-01-10T05:07:59;3.50;99.90
21035;DHT22;10676;50.848;3.272;2023-01-10T05:10:25;3.50;99.90
21035;DHT22;10676;50.848;3.272;2023-01-10T05:12:50;3.50;99.90
21035;DHT22;10676;50.848;3.272;2023-01-10T05:15:17;3.60;99.90
21035;DHT22;10676;50.848;3.272;2023-01-10T05:17:42;3.70;99.90
21035;DHT22;10676;50.848;3.272;2023-01-10T05:20:08;3.80;99.90
21035;DHT22;10676;50.848;3.272;2023-01-10T05:22:34;3.80;99.90
21035;DHT22;10676;50.848;3.272;2023-01-10T05:25:00;3.80;99.90
21035;DHT22;10676;50.848;3.272;2023-01-10T05:27:26;3.90;99.90
21035;DHT22;10676;50.848;3.272;2023-01-10T05:29:51;3.90;99.90
21035;DHT22;10676;50.848;3.272;2023-01-10T05:32:17;3.90;99.90
21035;DHT22;10676;50.848;3.272;2023-01-10T05:34:42;3.90;99.90
21035;DHT22;10676;50.848;3.272;2023-01-10T05:37:08;3.90;99.90
21035;DHT22;10676;50.848;3.272;2023-01-10T05:39:34;4.00;99.90
21035;DHT22;10676;50.848;3.272;2023-01-10T05:41:59;4.00;99.90
21035;DHT22;10676;50.848;3.272;2023-01-10T05:44:25;4.00;99.90
21035;DHT22;10676;50.848;3.272;2023-01-10T05:46:51;4.10;99.90
21035;DHT22;10676;50.848;3.272;2023-01-10T05:49:16;4.10;99.90
21035;DHT22;10676;50.848;3.272;2023-01-10T05:51:42;4.10;99.90
21035;DHT22;10676;50.848;3.272;2023-01-10T05:54:08;4.10;99.90
21035;DHT22;10676;50.848;3.272;2023-01-10T05:56:34;4.10;99.90
21035;DHT22;10676;50.848;3.272;2023-01-10T05:58:59;4.10;99.90
21035;DHT22;10676;50.848;3.272;2023-01-10T06:01:25;4.00;99.90
21035;DHT22;10676;50.848;3.272;2023-01-10T06:03:51;4.00;99.90
21035;DHT22;10676;50.848;3.272;2023-01-10T06:06:16;4.00;99.90
21035;DHT22;10676;50.848;3.272;2023-01-10T06:08:42;4.00;99.90
21035;DHT22;10676;50.848;3.272;2023-01-10T06:11:08;4.00;99.90
21035;DHT22;10676;50.848;3.272;2023-01-10T06:13:33;4.00;99.90
21035;DHT22;10676;50.848;3.272;2023-01-10T06:15:59;4.00;99.90
21035;DHT22;10676;50.848;3.272;2023-01-10T06:18:25;4.00;99.90
21035;DHT22;10676;50.848;3.272;2023-01-10T06:20:51;4.00;99.90
21035;DHT22;10676;50.848;3.272;2023-01-10T06:23:16;3.90;99.90
21035;DHT22;10676;50.848;3.272;2023-01-10T06:25:42;3.90;99.90
21035;DHT22;10676;50.848;3.272;2023-01-10T06:28:10;3.80;99.90
21035;DHT22;10676;50.848;3.272;2023-01-10T06:30:36;3.80;99.90
21035;DHT22;10676;50.848;3.272;2023-01-10T06:33:06;3.70;99.90
21035;DHT22;10676;50.848;3.272;2023-01-10T06:35:32;3.70;99.90
21035;DHT22;10676;50.848;3.272;2023-01-10T06:37:58;3.60;99.90
21035;DHT22;10676;50.848;3.272;2023-01-10T06:40:24;3.60;99.90
21035;DHT22;10676;50.848;3.272;2023-01-10T06:42:50;3.60;99.90
21035;DHT22;10676;50.848;3.272;2023-01-10T06:45:16;3.60;99.90
21035;DHT22;10676;50.848;3.272;2023-01-10T06:47:42;3.60;99.90
21035;DHT22;10676;50.848;3.272;2023-01-10T06:50:08;3.60;99.90
21035;DHT22;10676;50.848;3.272;2023-01-10T06:52:35;3.60;99.90
21035;DHT22;10676;50.848;3.272;2023-01-10T06:55:00;3.60;99.90
21035;DHT22;10676;50.848;3.272;2023-01-10T06:57:26;3.70;99.90
21035;DHT22;10676;50.848;3.272;2023-01-10T06:59:55;3.70;99.90
21035;DHT22;10676;50.848;3.272;2023-01-10T07:02:20;3.70;99.90
21035;DHT22;10676;50.848;3.272;2023-01-10T07:04:49;3.70;99.90
21035;DHT22;10676;50.848;3.272;2023-01-10T07:07:15;3.80;99.90
21035;DHT22;10676;50.848;3.272;2023-01-10T07:09:41;3.80;99.90
21035;DHT22;10676;50.848;3.272;2023-01-10T07:12:06;3.80;99.90
21035;DHT22;10676;50.848;3.272;2023-01-10T07:14:32;3.90;99.90
21035;DHT22;10676;50.848;3.272;2023-01-10T07:16:58;3.80;99.90
21035;DHT22;10676;50.848;3.272;2023-01-10T07:19:24;3.80;99.90
21035;DHT22;10676;50.848;3.272;2023-01-10T07:21:49;3.80;99.90
21035;DHT22;10676;50.848;3.272;2023-01-10T07:24:15;3.80;99.90
21035;DHT22;10676;50.848;3.272;2023-01-10T07:26:41;3.80;99.90
21035;DHT22;10676;50.848;3.272;2023-01-10T07:29:06;3.80;99.90
21035;DHT22;10676;50.848;3.272;2023-01-10T07:31:32;3.80;99.90
21035;DHT22;10676;50.848;3.272;2023-01-10T07:33:58;3.80;99.90
21035;DHT22;10676;50.848;3.272;2023-01-10T07:36:23;3.90;99.90
21035;DHT22;10676;50.848;3.272;2023-01-10T07:38:49;3.90;99.90
21035;DHT22;10676;50.848;3.272;2023-01-10T07:41:14;4.00;99.90
21035;DHT22;10676;50.848;3.272;2023-01-10T07:43:40;4.10;99.90
21035;DHT22;10676;50.848;3.272;2023-01-10T07:46:06;4.10;99.90
21035;DHT22;10676;50.848;3.272;2023-01-10T07:48:34;4.20;99.90
21035;DHT22;10676;50.848;3.272;2023-01-10T07:51:01;4.20;99.90
21035;DHT22;10676;50.848;3.272;2023-01-10T07:53:27;4.30;99.90
21035;DHT22;10676;50.848;3.272;2023-01-10T07:55:57;4.40;99.90
21035;DHT22;10676;50.848;3.272;2023-01-10T07:58:23;4.40;99.90
21035;DHT22;10676;50.848;3.272;2023-01-10T08:00:49;4.50;99.90
21035;DHT22;10676;50.848;3.272;2023-01-10T08:03:15;4.50;99.90
21035;DHT22;10676;50.848;3.272;2023-01-10T08:05:42;4.50;99.90
21035;DHT22;10676;50.848;3.272;2023-01-10T08:08:09;4.60;99.90
21035;DHT22;10676;50.848;3.272;2023-01-10T08:10:37;4.70;99.90
21035;DHT22;10676;50.848;3.272;2023-01-10T08:13:03;4.70;99.90
21035;DHT22;10676;50.848;3.272;2023-01-10T08:15:29;4.80;99.90
21035;DHT22;10676;50.848;3.272;2023-01-10T08:17:59;4.80;99.90
21035;DHT22;10676;50.848;3.272;2023-01-10T08:20:25;4.90;99.90
21035;DHT22;10676;50.848;3.272;2023-01-10T08:22:51;4.90;99.90
21035;DHT22;10676;50.848;3.272;2023-01-10T08:25:17;4.90;99.90
21035;DHT22;10676;50.848;3.272;2023-01-10T08:27:43;5.10;99.90
21035;DHT22;10676;50.848;3.272;2023-01-10T08:30:09;5.00;99.90
21035;DHT22;10676;50.848;3.272;2023-01-10T08:32:35;5.00;99.90
21035;DHT22;10676;50.848;3.272;2023-01-10T08:35:00;5.00;99.90
21035;DHT22;10676;50.848;3.272;2023-01-10T08:37:26;5.00;99.90
21035;DHT22;10676;50.848;3.272;2023-01-10T08:39:53;5.10;99.90
21035;DHT22;10676;50.848;3.272;2023-01-10T08:42:18;5.20;99.90
21035;DHT22;10676;50.848;3.272;2023-01-10T08:44:44;5.20;99.90
21035;DHT22;10676;50.848;3.272;2023-01-10T08:47:09;5.20;99.90
21035;DHT22;10676;50.848;3.272;2023-01-10T08:49:35;5.30;99.90
21035;DHT22;10676;50.848;3.272;2023-01-10T08:52:01;5.40;99.90
21035;DHT22;10676;50.848;3.272;2023-01-10T08:54:27;5.40;99.90
21035;DHT22;10676;50.848;3.272;2023-01-10T08:56:52;5.50;99.90
21035;DHT22;10676;50.848;3.272;2023-01-10T08:59:18;5.60;99.90
21035;DHT22;10676;50.848;3.272;2023-01-10T09:01:44;5.70;99.90
21035;DHT22;10676;50.848;3.272;2023-01-10T09:04:10;5.80;99.90
21035;DHT22;10676;50.848;3.272;2023-01-10T09:06:36;5.90;99.90
21035;DHT22;10676;50.848;3.272;2023-01-10T09:09:02;6.00;99.90
21035;DHT22;10676;50.848;3.272;2023-01-10T09:11:28;6.00;99.90
21035;DHT22;10676;50.848;3.272;2023-01-10T09:13:53;6.10;99.90
21035;DHT22;10676;50.848;3.272;2023-01-10T09:16:19;6.20;99.90
21035;DHT22;10676;50.848;3.272;2023-01-10T09:18:45;6.30;99.90
21035;DHT22;10676;50.848;3.272;2023-01-10T09:21:11;6.30;99.90
21035;DHT22;10676;50.848;3.272;2023-01-10T09:23:36;6.40;99.90
21035;DHT22;10676;50.848;3.272;2023-01-10T09:26:04;6.50;99.90
21035;DHT22;10676;50.848;3.272;2023-01-10T09:28:29;6.50;99.90
21035;DHT22;10676;50.848;3.272;2023-01-10T09:30:55;6.60;99.90
21035;DHT22;10676;50.848;3.272;2023-01-10T09:33:21;6.60;99.90
21035;DHT22;10676;50.848;3.272;2023-01-10T09:35:46;6.70;99.90
21035;DHT22;10676;50.848;3.272;2023-01-10T09:38:14;6.80;99.90
21035;DHT22;10676;50.848;3.272;2023-01-10T09:49:13;7.50;99.90
21035;DHT22;10676;50.848;3.272;2023-01-10T09:51:41;7.70;99.90
21035;DHT22;10676;50.848;3.272;2023-01-10T09:54:24;7.90;99.90
21035;DHT22;10676;50.848;3.272;2023-01-10T09:56:51;8.10;99.90
21035;DHT22;10676;50.848;3.272;2023-01-10T09:59:19;8.20;99.90
21035;DHT22;10676;50.848;3.272;2023-01-10T10:01:47;8.30;99.90
21035;DHT22;10676;50.848;3.272;2023-01-10T10:04:22;8.40;99.90
21035;DHT22;10676;50.848;3.272;2023-01-10T10:06:51;8.50;99.90
21035;DHT22;10676;50.848;3.272;2023-01-10T10:09:23;8.50;99.90
21035;DHT22;10676;50.848;3.272;2023-01-10T10:26:45;8.70;99.90
21035;DHT22;10676;50.848;3.272;2023-01-10T10:35:01;8.90;99.90
21035;DHT22;10676;50.848;3.272;2023-01-10T10:37:41;9.00;99.90
21035;DHT22;10676;50.848;3.272;2023-01-10T10:40:18;9.10;99.90
21035;DHT22;10676;50.848;3.272;2023-01-10T10:42:48;9.20;99.90
21035;DHT22;10676;50.848;3.272;2023-01-10T10:48:25;9.60;99.90
21035;DHT22;10676;50.848;3.272;2023-01-10T10:51:09;9.80;99.90
21035;DHT22;10676;50.848;3.272;2023-01-10T10:53:37;9.80;99.90
21035;DHT22;10676;50.848;3.272;2023-01-10T10:56:05;9.80;99.90
21035;DHT22;10676;50.848;3.272;2023-01-10T10:58:32;9.70;99.90
21035;DHT22;10676;50.848;3.272;2023-01-10T11:01:00;9.70;99.90
21035;DHT22;10676;50.848;3.272;2023-01-10T11:03:46;9.60;99.90
21035;DHT22;10676;50.848;3.272;2023-01-10T11:06:14;9.40;99.90
21035;DHT22;10676;50.848;3.272;2023-01-10T11:08:43;9.30;99.90
21035;DHT22;10676;50.848;3.272;2023-01-10T11:11:20;9.10;99.90
21035;DHT22;10676;50.848;3.272;2023-01-10T11:13:58;9.10;99.90
21035;DHT22;10676;50.848;3.272;2023-01-10T11:16:32;9.00;99.90
21035;DHT22;10676;50.848;3.272;2023-01-10T11:21:37;8.80;99.90
21035;DHT22;10676;50.848;3.272;2023-01-10T11:24:04;8.70;99.90
21035;DHT22;10676;50.848;3.272;2023-01-10T11:26:42;8.70;99.90
21035;DHT22;10676;50.848;3.272;2023-01-10T11:31:44;8.60;99.90
21035;DHT22;10676;50.848;3.272;2023-01-10T11:34:32;8.60;99.90
21035;DHT22;10676;50.848;3.272;2023-01-10T11:37:05;8.50;99.90
21035;DHT22;10676;50.848;3.272;2023-01-10T11:39:42;8.50;99.90
21035;DHT22;10676;50.848;3.272;2023-01-10T11:42:31;8.40;99.90
21035;DHT22;10676;50.848;3.272;2023-01-10T11:47:56;8.40;99.90
21035;DHT22;10676;50.848;3.272;2023-01-10T11:50:27;8.30;99.90
21035;DHT22;10676;50.848;3.272;2023-01-10T11:52:54;8.30;99.90
21035;DHT22;10676;50.848;3.272;2023-01-10T11:55:22;8.30;99.90
21035;DHT22;10676;50.848;3.272;2023-01-10T11:57:59;8.20;99.90
21035;DHT22;10676;50.848;3.272;2023-01-10T12:00:51;8.20;99.90
21035;DHT22;10676;50.848;3.272;2023-01-10T12:03:32;8.20;99.90
21035;DHT22;10676;50.848;3.272;2023-01-10T12:06:02;8.20;99.90
21035;DHT22;10676;50.848;3.272;2023-01-10T12:08:36;8.20;99.90
21035;DHT22;10676;50.848;3.272;2023-01-10T12:11:05;8.10;99.90
21035;DHT22;10676;50.848;3.272;2023-01-10T12:13:47;8.10;99.90
21035;DHT22;10676;50.848;3.272;2023-01-10T12:18:43;8.20;99.90
21035;DHT22;10676;50.848;3.272;2023-01-10T12:21:11;8.20;99.90
21035;DHT22;10676;50.848;3.272;2023-01-10T12:23:39;8.20;99.90
21035;DHT22;10676;50.848;3.272;2023-01-10T12:26:07;8.30;99.90
21035;DHT22;10676;50.848;3.272;2023-01-10T12:28:35;8.20;99.90
21035;DHT22;10676;50.848;3.272;2023-01-10T12:31:02;8.20;99.90
21035;DHT22;10676;50.848;3.272;2023-01-10T12:36:12;8.20;99.90
21035;DHT22;10676;50.848;3.272;2023-01-10T12:44:45;8.20;99.90
21035;DHT22;10676;50.848;3.272;2023-01-10T12:53:30;8.20;99.90
21035;DHT22;10676;50.848;3.272;2023-01-10T12:56:00;8.20;99.90
21035;DHT22;10676;50.848;3.272;2023-01-10T12:58:45;8.20;99.90
21035;DHT22;10676;50.848;3.272;2023-01-10T13:01:29;8.10;99.90
21035;DHT22;10676;50.848;3.272;2023-01-10T13:04:03;8.10;99.90
21035;DHT22;10676;50.848;3.272;2023-01-10T13:06:35;8.10;99.90
21035;DHT22;10676;50.848;3.272;2023-01-10T13:09:17;8.10;99.90
21035;DHT22;10676;50.848;3.272;2023-01-10T13:12:08;8.00;99.90
21035;DHT22;10676;50.848;3.272;2023-01-10T13:14:49;7.90;99.90
21035;DHT22;10676;50.848;3.272;2023-01-10T13:22:43;7.90;99.90
21035;DHT22;10676;50.848;3.272;2023-01-10T13:27:44;7.90;99.90
21035;DHT22;10676;50.848;3.272;2023-01-10T13:30:33;7.90;99.90
21035;DHT22;10676;50.848;3.272;2023-01-10T13:33:06;7.80;99.90
21035;DHT22;10676;50.848;3.272;2023-01-10T13:35:41;7.90;99.90
21035;DHT22;10676;50.848;3.272;2023-01-10T13:38:22;7.90;99.90
21035;DHT22;10676;50.848;3.272;2023-01-10T13:41:04;7.90;99.90
21035;DHT22;10676;50.848;3.272;2023-01-10T13:43:39;7.90;99.90
21035;DHT22;10676;50.848;3.272;2023-01-10T13:51:19;7.90;99.90
21035;DHT22;10676;50.848;3.272;2023-01-10T13:56:40;8.00;99.90
21035;DHT22;10676;50.848;3.272;2023-01-10T13:59:59;8.00;99.90
21035;DHT22;10676;50.848;3.272;2023-01-10T14:02:25;8.00;99.90
21035;DHT22;10676;50.848;3.272;2023-01-10T14:04:59;8.10;99.90
21035;DHT22;10676;50.848;3.272;2023-01-10T14:07:27;8.00;99.90
21035;DHT22;10676;50.848;3.272;2023-01-10T14:10:04;8.10;99.90
21035;DHT22;10676;50.848;3.272;2023-01-10T14:12:49;8.10;99.90
21035;DHT22;10676;50.848;3.272;2023-01-10T14:15:30;8.10;99.90
21035;DHT22;10676;50.848;3.272;2023-01-10T14:18:02;8.10;99.90
21035;DHT22;10676;50.848;3.272;2023-01-10T14:20:31;8.10;99.90
21035;DHT22;10676;50.848;3.272;2023-01-10T14:25:40;8.10;99.90
21035;DHT22;10676;50.848;3.272;2023-01-10T14:28:21;8.10;99.90
21035;DHT22;10676;50.848;3.272;2023-01-10T14:31:17;8.10;99.90
21035;DHT22;10676;50.848;3.272;2023-01-10T14:33:44;8.10;99.90
21035;DHT22;10676;50.848;3.272;2023-01-10T14:38:46;8.10;99.90
21035;DHT22;10676;50.848;3.272;2023-01-10T14:41:18;8.10;99.90
21035;DHT22;10676;50.848;3.272;2023-01-10T14:43:54;8.20;99.90
21035;DHT22;10676;50.848;3.272;2023-01-10T14:46:28;8.20;99.90
21035;DHT22;10676;50.848;3.272;2023-01-10T14:48:57;8.20;99.90
21035;DHT22;10676;50.848;3.272;2023-01-10T14:51:26;8.20;99.90
21035;DHT22;10676;50.848;3.272;2023-01-10T14:54:13;8.20;99.90
21035;DHT22;10676;50.848;3.272;2023-01-10T14:56:40;8.30;99.90
21035;DHT22;10676;50.848;3.272;2023-01-10T14:59:26;8.30;99.90
21035;DHT22;10676;50.848;3.272;2023-01-10T15:01:58;8.20;99.90
21035;DHT22;10676;50.848;3.272;2023-01-10T15:04:32;8.30;99.90
21035;DHT22;10676;50.848;3.272;2023-01-10T15:07:08;8.30;99.90
21035;DHT22;10676;50.848;3.272;2023-01-10T15:09:34;8.30;99.90
21035;DHT22;10676;50.848;3.272;2023-01-10T15:12:03;8.30;99.90
21035;DHT22;10676;50.848;3.272;2023-01-10T15:14:30;8.40;99.90
21035;DHT22;10676;50.848;3.272;2023-01-10T15:17:01;8.30;99.90
21035;DHT22;10676;50.848;3.272;2023-01-10T15:19:34;8.30;99.90
21035;DHT22;10676;50.848;3.272;2023-01-10T15:22:01;8.40;99.90
21035;DHT22;10676;50.848;3.272;2023-01-10T15:24:36;8.40;99.90
21035;DHT22;10676;50.848;3.272;2023-01-10T15:27:14;8.40;99.90
21035;DHT22;10676;50.848;3.272;2023-01-10T15:29:41;8.50;99.90
21035;DHT22;10676;50.848;3.272;2023-01-10T15:32:32;8.60;99.90
21035;DHT22;10676;50.848;3.272;2023-01-10T15:34:59;8.60;99.90
21035;DHT22;10676;50.848;3.272;2023-01-10T15:37:27;8.70;99.90
21035;DHT22;10676;50.848;3.272;2023-01-10T15:39:59;8.60;99.90
21035;DHT22;10676;50.848;3.272;2023-01-10T15:42:25;8.60;99.90
21035;DHT22;10676;50.848;3.272;2023-01-10T15:44:52;8.70;99.90
21035;DHT22;10676;50.848;3.272;2023-01-10T15:47:35;8.70;99.90
21035;DHT22;10676;50.848;3.272;2023-01-10T15:50:29;8.70;99.90
21035;DHT22;10676;50.848;3.272;2023-01-10T15:53:16;8.70;99.90
21035;DHT22;10676;50.848;3.272;2023-01-10T15:55:46;8.80;99.90
21035;DHT22;10676;50.848;3.272;2023-01-10T16:00:55;8.80;99.90
21035;DHT22;10676;50.848;3.272;2023-01-10T16:03:36;8.80;99.90
21035;DHT22;10676;50.848;3.272;2023-01-10T16:06:04;8.90;99.90
21035;DHT22;10676;50.848;3.272;2023-01-10T16:08:36;8.90;99.90
21035;DHT22;10676;50.848;3.272;2023-01-10T16:11:06;9.00;99.90
21035;DHT22;10676;50.848;3.272;2023-01-10T16:13:35;9.00;99.90
21035;DHT22;10676;50.848;3.272;2023-01-10T16:16:20;9.10;99.90
21035;DHT22;10676;50.848;3.272;2023-01-10T16:18:45;9.10;99.90
21035;DHT22;10676;50.848;3.272;2023-01-10T16:21:12;9.20;99.90
21035;DHT22;10676;50.848;3.272;2023-01-10T16:23:42;9.30;99.90
21035;DHT22;10676;50.848;3.272;2023-01-10T16:26:13;9.30;99.90
21035;DHT22;10676;50.848;3.272;2023-01-10T16:28:40;9.40;99.90
21035;DHT22;10676;50.848;3.272;2023-01-10T16:31:10;9.40;99.90
21035;DHT22;10676;50.848;3.272;2023-01-10T16:33:36;9.40;99.90
21035;DHT22;10676;50.848;3.272;2023-01-10T16:36:02;9.40;99.90
21035;DHT22;10676;50.848;3.272;2023-01-10T16:38:28;9.40;99.90
21035;DHT22;10676;50.848;3.272;2023-01-10T16:41:01;9.50;99.90
21035;DHT22;10676;50.848;3.272;2023-01-10T16:43:48;9.50;99.90
21035;DHT22;10676;50.848;3.272;2023-01-10T16:46:14;9.60;99.90
21035;DHT22;10676;50.848;3.272;2023-01-10T16:48:39;9.60;99.90
21035;DHT22;10676;50.848;3.272;2023-01-10T16:51:17;9.70;99.90
21035;DHT22;10676;50.848;3.272;2023-01-10T16:53:43;9.70;99.90
21035;DHT22;10676;50.848;3.272;2023-01-10T16:56:14;9.80;99.90
21035;DHT22;10676;50.848;3.272;2023-01-10T16:58:40;9.80;99.90
21035;DHT22;10676;50.848;3.272;2023-01-10T17:01:07;9.90;99.90
21035;DHT22;10676;50.848;3.272;2023-01-10T17:03:35;9.90;99.90
21035;DHT22;10676;50.848;3.272;2023-01-10T17:06:04;9.90;99.90
21035;DHT22;10676;50.848;3.272;2023-01-10T17:08:29;9.90;99.90
21035;DHT22;10676;50.848;3.272;2023-01-10T17:11:00;10.00;99.90
21035;DHT22;10676;50.848;3.272;2023-01-10T17:13:29;10.00;99.90
21035;DHT22;10676;50.848;3.272;2023-01-10T17:15:56;10.10;99.90
21035;DHT22;10676;50.848;3.272;2023-01-10T17:18:23;10.10;99.90
21035;DHT22;10676;50.848;3.272;2023-01-10T17:20:50;10.20;99.90
21035;DHT22;10676;50.848;3.272;2023-01-10T17:23:16;10.20;99.90
21035;DHT22;10676;50.848;3.272;2023-01-10T17:25:42;10.30;99.90
21035;DHT22;10676;50.848;3.272;2023-01-10T17:28:10;10.30;99.90
21035;DHT22;10676;50.848;3.272;2023-01-10T17:30:38;10.30;99.90
21035;DHT22;10676;50.848;3.272;2023-01-10T17:33:04;10.30;99.90
21035;DHT22;10676;50.848;3.272;2023-01-10T17:35:29;10.30;99.90
21035;DHT22;10676;50.848;3.272;2023-01-10T17:37:56;10.40;99.90
21035;DHT22;10676;50.848;3.272;2023-01-10T17:40:22;10.40;99.90
21035;DHT22;10676;50.848;3.272;2023-01-10T17:42:48;10.40;99.90
21035;DHT22;10676;50.848;3.272;2023-01-10T17:45:13;10.40;99.90
21035;DHT22;10676;50.848;3.272;2023-01-10T17:47:39;10.40;99.90
21035;DHT22;10676;50.848;3.272;2023-01-10T17:50:05;10.50;99.90
21035;DHT22;10676;50.848;3.272;2023-01-10T17:52:31;10.50;99.90
21035;DHT22;10676;50.848;3.272;2023-01-10T17:54:56;10.50;99.90
21035;DHT22;10676;50.848;3.272;2023-01-10T17:57:22;10.60;99.90
21035;DHT22;10676;50.848;3.272;2023-01-10T17:59:49;10.60;99.90